createdAt,value
2022-09-15T00:01:43.551Z,4.59
2022-09-15T00:04:12.738Z,4.75
2022-09-15T00:06:41.770Z,4.88
2022-09-15T00:09:10.547Z,4.99
2022-09-15T00:11:40.770Z,5.07
2022-09-15T00:14:09.983Z,5.07
2022-09-15T00:16:39.121Z,5.05
2022-09-15T00:19:07.980Z,5.05
2022-09-15T00:21:39.722Z,5.14
2022-09-15T00:24:10.162Z,5.20
2022-09-15T00:26:39.387Z,5.23
2022-09-15T00:29:09.187Z,5.23
2022-09-15T00:31:37.992Z,5.39
2022-09-15T00:34:07.701Z,5.61
2022-09-15T00:36:36.512Z,5.75
2022-09-15T00:39:05.992Z,6.00
2022-09-15T00:41:35.894Z,6.24
2022-09-15T00:44:36.677Z,6.39
2022-09-15T00:47:19.243Z,6.68
2022-09-15T00:49:58.818Z,7.20
2022-09-15T00:52:53.879Z,8.43
2022-09-15T00:55:30.956Z,9.50
2022-09-15T00:58:07.362Z,10.41
2022-09-15T01:00:37.491Z,11.25
2022-09-15T01:03:07.228Z,11.58
2022-09-15T01:05:45.673Z,11.63
2022-09-15T01:08:26.802Z,11.97
2022-09-15T01:10:55.812Z,12.61
2022-09-15T01:13:24.777Z,13.25
2022-09-15T01:16:12.142Z,14.14
2022-09-15T01:19:00.200Z,15.18
2022-09-15T01:21:32.003Z,16.30
2022-09-15T01:24:18.680Z,17.24
2022-09-15T01:27:09.782Z,18.14
2022-09-15T01:30:03.656Z,18.81
2022-09-15T01:33:09.461Z,19.03
2022-09-15T01:35:59.579Z,19.43
2022-09-15T01:38:47.685Z,19.80
2022-09-15T01:41:27.213Z,19.67
2022-09-15T01:44:28.048Z,20.17
2022-09-15T01:47:04.021Z,20.74
2022-09-15T01:49:42.888Z,21.14
2022-09-15T01:52:12.272Z,21.41
2022-09-15T01:54:49.809Z,22.03
2022-09-15T01:57:23.063Z,22.71
2022-09-15T01:59:54.715Z,23.18
2022-09-15T02:02:39.210Z,23.78
2022-09-15T02:05:33.216Z,25.16
2022-09-15T02:08:09.324Z,26.19
2022-09-15T02:10:47.073Z,26.97
2022-09-15T02:14:01.966Z,27.49
2022-09-15T02:16:37.029Z,27.59
2022-09-15T02:19:32.842Z,27.69
2022-09-15T02:22:39.227Z,28.03
2022-09-15T02:25:29.614Z,28.34
2022-09-15T02:28:05.128Z,28.02
2022-09-15T02:30:36.786Z,28.27
2022-09-15T02:33:09.075Z,28.47
2022-09-15T02:35:37.952Z,28.79
2022-09-15T02:38:09.740Z,29.38
2022-09-15T02:40:42.055Z,29.57
2022-09-15T02:43:14.188Z,29.79
2022-09-15T02:45:46.542Z,29.46
2022-09-15T02:48:18.207Z,29.22
2022-09-15T02:50:47.043Z,29.53
2022-09-15T02:53:15.755Z,30.05
2022-09-15T02:55:44.930Z,30.23
2022-09-15T02:58:13.634Z,30.13
2022-09-15T03:00:45.421Z,30.35
2022-09-15T03:03:14.330Z,30.54
2022-09-15T03:05:43.595Z,30.33
2022-09-15T03:08:14.510Z,30.50
2022-09-15T03:10:44.813Z,30.72
2022-09-15T03:13:13.548Z,31.04
2022-09-15T03:15:42.491Z,31.22
2022-09-15T03:18:11.228Z,31.21
2022-09-15T03:20:40.887Z,31.08
2022-09-15T03:23:09.962Z,31.28
2022-09-15T03:25:38.637Z,31.49
2022-09-15T03:28:07.398Z,31.69
2022-09-15T03:30:36.191Z,31.71
2022-09-15T03:33:04.978Z,31.98
2022-09-15T03:35:33.951Z,32.82
2022-09-15T03:38:02.887Z,33.25
2022-09-15T03:40:31.924Z,33.26
2022-09-15T03:43:01.447Z,33.34
2022-09-15T03:45:30.273Z,33.41
2022-09-15T03:47:59.080Z,33.43
2022-09-15T03:50:29.665Z,33.57
2022-09-15T03:53:01.063Z,33.67
2022-09-15T03:55:29.916Z,33.61
2022-09-15T03:57:58.627Z,33.54
2022-09-15T04:00:27.882Z,33.89
2022-09-15T04:02:56.880Z,34.50
2022-09-15T04:05:25.600Z,35.03
2022-09-15T04:07:54.441Z,35.19
2022-09-15T04:10:25.142Z,35.26
2022-09-15T04:12:54.734Z,35.66
2022-09-15T04:15:24.189Z,36.22
2022-09-15T04:17:52.849Z,36.80
2022-09-15T04:20:22.016Z,37.36
2022-09-15T04:22:50.983Z,37.25
2022-09-15T04:25:19.815Z,35.41
2022-09-15T04:27:48.560Z,33.31
2022-09-15T04:30:17.850Z,31.55
2022-09-15T04:32:46.774Z,30.15
2022-09-15T04:35:15.483Z,29.26
2022-09-15T04:37:44.151Z,28.70
2022-09-15T04:40:13.299Z,27.99
2022-09-15T04:42:42.759Z,27.37
2022-09-15T04:45:11.678Z,27.19
2022-09-15T04:47:40.657Z,26.88
2022-09-15T04:50:09.854Z,26.38
2022-09-15T04:52:38.551Z,26.04
2022-09-15T04:55:07.458Z,25.78
2022-09-15T04:57:36.155Z,26.02
2022-09-15T05:00:08.093Z,26.19
2022-09-15T05:02:36.938Z,25.92
2022-09-15T05:05:07.200Z,25.76
2022-09-15T05:07:35.931Z,28.08
2022-09-15T05:10:04.993Z,30.91
2022-09-15T05:12:34.210Z,33.24
2022-09-15T05:15:03.090Z,34.65
2022-09-15T05:17:33.205Z,35.58
2022-09-15T05:20:02.277Z,35.96
2022-09-15T05:22:32.864Z,35.67
2022-09-15T05:25:01.588Z,35.21
2022-09-15T05:27:34.441Z,35.70
2022-09-15T05:30:31.931Z,36.34
2022-09-15T05:32:53.545Z,36.79
2022-09-15T05:35:24.084Z,36.87
2022-09-15T05:37:52.794Z,35.95
2022-09-15T05:40:22.923Z,35.00
2022-09-15T05:42:51.711Z,35.23
2022-09-15T05:45:20.385Z,35.96
2022-09-15T05:47:49.081Z,35.63
2022-09-15T05:50:17.964Z,35.76
2022-09-15T05:52:52.418Z,36.74
2022-09-15T05:55:21.323Z,37.50
2022-09-15T05:57:50.075Z,37.90
2022-09-15T06:00:19.855Z,38.17
2022-09-15T06:02:48.864Z,38.48
2022-09-15T06:05:17.726Z,38.64
2022-09-15T06:07:46.419Z,38.75
2022-09-15T06:10:16.262Z,38.90
2022-09-15T06:12:45.890Z,39.06
2022-09-15T06:15:14.802Z,39.03
2022-09-15T06:17:43.592Z,39.11
2022-09-15T06:20:12.722Z,38.82
2022-09-15T06:22:41.751Z,36.59
2022-09-15T06:25:11.137Z,32.85
2022-09-15T06:27:40.721Z,32.18
2022-09-15T06:30:10.624Z,33.76
2022-09-15T06:32:40.107Z,35.44
2022-09-15T06:35:09.274Z,36.50
2022-09-15T06:37:37.982Z,37.14
2022-09-15T06:40:08.207Z,37.70
2022-09-15T06:42:37.853Z,37.98
2022-09-15T06:45:06.927Z,37.86
2022-09-15T06:47:36.105Z,38.03
2022-09-15T06:50:05.699Z,37.95
2022-09-15T06:52:35.147Z,37.77
2022-09-15T06:55:04.518Z,37.42
2022-09-15T06:57:33.292Z,36.14
2022-09-15T07:00:03.846Z,32.63
2022-09-15T07:02:33.888Z,29.89
2022-09-15T07:05:03.387Z,27.68
2022-09-15T07:07:32.270Z,26.08
2022-09-15T07:10:03.019Z,25.02
2022-09-15T07:12:33.008Z,24.26
2022-09-15T07:15:01.872Z,23.43
2022-09-15T07:17:32.127Z,22.65
2022-09-15T07:20:02.778Z,21.88
2022-09-15T07:22:32.241Z,21.25
2022-09-15T07:25:00.901Z,20.79
2022-09-15T07:27:32.284Z,20.38
2022-09-15T07:30:01.217Z,20.21
2022-09-15T07:32:30.546Z,20.02
2022-09-15T07:34:59.537Z,19.75
2022-09-15T07:37:28.356Z,19.54
2022-09-15T07:39:57.110Z,19.42
2022-09-15T07:42:26.521Z,19.43
2022-09-15T07:44:55.376Z,19.54
2022-09-15T07:47:24.135Z,19.67
2022-09-15T07:49:53.471Z,20.22
2022-09-15T07:52:22.447Z,21.04
2022-09-15T07:54:51.759Z,21.86
2022-09-15T07:57:20.489Z,22.38
2022-09-15T07:59:50.435Z,22.64
2022-09-15T08:02:22.094Z,24.36
2022-09-15T08:04:53.683Z,26.48
2022-09-15T08:07:22.876Z,28.63
2022-09-15T08:09:51.641Z,30.48
2022-09-15T08:12:20.401Z,31.09
2022-09-15T08:14:49.888Z,29.79
2022-09-15T08:17:18.696Z,27.52
2022-09-15T08:19:47.806Z,25.87
2022-09-15T08:22:16.532Z,25.02
2022-09-15T08:24:45.406Z,24.36
2022-09-15T08:27:15.857Z,23.20
2022-09-15T08:29:44.778Z,22.23
2022-09-15T08:32:13.706Z,21.49
2022-09-15T08:34:42.494Z,21.01
2022-09-15T08:37:11.228Z,20.41
2022-09-15T08:39:40.026Z,19.95
2022-09-15T08:42:16.442Z,19.43
2022-09-15T08:44:59.633Z,18.90
2022-09-15T08:47:42.573Z,18.28
2022-09-15T08:50:23.707Z,17.87
2022-09-15T08:53:25.946Z,17.60
2022-09-15T08:56:02.316Z,17.55
2022-09-15T08:58:34.874Z,17.48
2022-09-15T09:01:07.505Z,17.33
2022-09-15T09:04:01.214Z,17.14
2022-09-15T09:06:55.360Z,16.94
2022-09-15T09:09:43.131Z,16.84
2022-09-15T09:12:31.217Z,16.71
2022-09-15T09:15:26.524Z,16.59
2022-09-15T09:18:21.515Z,16.43
2022-09-15T09:21:14.034Z,16.36
2022-09-15T09:24:07.814Z,16.23
2022-09-15T09:26:37.674Z,16.13
2022-09-15T09:29:15.508Z,15.99
2022-09-15T09:31:46.698Z,15.81
2022-09-15T09:34:33.412Z,15.65
2022-09-15T09:37:09.213Z,15.49
2022-09-15T09:39:37.997Z,15.36
2022-09-15T09:42:12.145Z,15.27
2022-09-15T09:44:42.197Z,15.17
2022-09-15T09:47:12.922Z,15.08
2022-09-15T09:49:48.524Z,14.95
2022-09-15T09:52:39.604Z,14.83
2022-09-15T09:55:23.764Z,14.70
2022-09-15T09:57:52.731Z,14.63
2022-09-15T10:00:40.175Z,14.50
2022-09-15T10:03:29.419Z,14.41
2022-09-15T10:06:12.125Z,14.25
2022-09-15T10:08:59.114Z,14.18
2022-09-15T10:11:47.934Z,14.18
2022-09-15T10:14:27.620Z,14.14
2022-09-15T10:16:59.269Z,14.01
2022-09-15T10:19:31.128Z,13.85
2022-09-15T10:22:03.301Z,13.78
2022-09-15T10:24:40.746Z,13.67
2022-09-15T10:27:32.213Z,13.64
2022-09-15T10:30:17.193Z,13.52
2022-09-15T10:32:46.008Z,13.50
2022-09-15T10:35:19.230Z,13.41
2022-09-15T10:38:03.878Z,13.38
2022-09-15T10:41:13.652Z,13.38
2022-09-15T10:44:05.529Z,13.39
2022-09-15T10:46:49.059Z,13.42
2022-09-15T10:49:39.124Z,13.37
2022-09-15T10:52:16.679Z,13.21
2022-09-15T10:54:48.910Z,13.09
2022-09-15T10:57:39.367Z,12.99
2022-09-15T11:00:13.509Z,12.94
2022-09-15T11:03:00.629Z,12.83
2022-09-15T11:05:29.354Z,12.71
2022-09-15T11:08:33.887Z,12.54
2022-09-15T11:11:18.626Z,12.23
2022-09-15T11:13:47.435Z,12.19
2022-09-15T11:16:44.572Z,12.02
2022-09-15T11:19:50.386Z,11.88
2022-09-15T11:22:40.313Z,11.68
2022-09-15T11:25:29.745Z,11.61
2022-09-15T11:28:25.886Z,11.50
2022-09-15T11:31:20.248Z,11.25
2022-09-15T11:34:12.102Z,10.98
2022-09-15T11:36:47.454Z,10.81
2022-09-15T11:39:31.131Z,10.74
2022-09-15T11:42:15.270Z,10.59
2022-09-15T11:44:47.430Z,10.45
2022-09-15T11:47:43.562Z,10.46
2022-09-15T11:50:12.312Z,10.45
2022-09-15T11:52:51.787Z,10.32
2022-09-15T11:55:53.962Z,10.27
2022-09-15T11:58:44.085Z,10.23
2022-09-15T12:01:19.709Z,10.17
2022-09-15T12:03:52.701Z,10.09
2022-09-15T12:06:45.986Z,10.03
2022-09-15T12:09:19.100Z,9.94
2022-09-15T12:11:53.578Z,9.88
2022-09-15T12:14:47.917Z,9.72
2022-09-15T12:17:31.241Z,9.59
2022-09-15T12:20:12.335Z,9.51
2022-09-15T12:22:47.096Z,9.47
2022-09-15T12:26:03.281Z,9.43
2022-09-15T12:28:38.130Z,9.39
2022-09-15T12:31:32.875Z,9.25
2022-09-15T12:34:26.450Z,9.10
2022-09-15T12:37:16.205Z,9.03
2022-09-15T12:39:47.162Z,8.94
2022-09-15T12:42:30.285Z,8.88
2022-09-15T12:45:06.679Z,8.90
2022-09-15T12:47:49.705Z,8.84
2022-09-15T12:50:21.914Z,8.80
2022-09-15T12:53:01.397Z,8.72
2022-09-15T12:55:38.491Z,8.68
2022-09-15T12:58:19.090Z,8.71
2022-09-15T13:01:16.938Z,8.70
2022-09-15T13:03:41.309Z,8.70
2022-09-15T13:06:27.417Z,8.70
2022-09-15T13:09:02.021Z,8.71
2022-09-15T13:11:39.977Z,8.67
2022-09-15T13:14:23.789Z,8.58
2022-09-15T13:16:59.091Z,8.43
2022-09-15T13:19:52.866Z,8.25
2022-09-15T13:22:35.396Z,8.09
2022-09-15T13:25:05.221Z,8.02
2022-09-15T13:27:57.543Z,7.97
2022-09-15T13:30:48.448Z,7.87
2022-09-15T13:40:04.779Z,7.66
2022-09-15T13:42:52.161Z,7.69
2022-09-15T13:45:45.205Z,7.64
2022-09-15T13:48:24.038Z,7.64
2022-09-15T13:51:06.767Z,7.56
2022-09-15T13:53:44.650Z,7.59
2022-09-15T13:56:28.689Z,7.50
2022-09-15T13:59:08.133Z,7.39
2022-09-15T14:01:39.761Z,7.40
2022-09-15T14:04:20.059Z,7.37
2022-09-15T14:06:55.917Z,7.33
2022-09-15T14:09:37.938Z,7.27
2022-09-15T14:12:13.871Z,7.16
2022-09-15T14:14:52.085Z,7.12
2022-09-15T14:17:30.310Z,7.14
2022-09-15T14:20:01.406Z,7.21
2022-09-15T14:22:36.328Z,7.30
2022-09-15T14:25:15.213Z,7.37
2022-09-15T14:27:48.612Z,7.43
2022-09-15T14:30:25.230Z,7.42
2022-09-15T14:33:04.672Z,7.38
2022-09-15T14:35:38.299Z,7.33
2022-09-15T14:38:07.950Z,7.22
2022-09-15T14:40:40.443Z,7.16
2022-09-15T14:43:36.219Z,7.05
2022-09-15T14:46:17.544Z,6.92
2022-09-15T14:48:46.320Z,6.86
2022-09-15T14:51:29.262Z,6.75
2022-09-15T14:54:00.968Z,6.78
2022-09-15T14:56:35.830Z,6.77
2022-09-15T14:59:20.265Z,6.79
2022-09-15T15:01:57.379Z,6.81
2022-09-15T15:04:55.682Z,6.79
2022-09-15T15:07:28.475Z,6.75
2022-09-15T15:10:05.425Z,6.71
2022-09-15T15:12:40.548Z,6.79
2022-09-15T15:15:15.613Z,6.81
2022-09-15T15:17:49.975Z,6.88
2022-09-15T15:20:25.173Z,6.89
2022-09-15T15:23:17.154Z,6.98
2022-09-15T15:25:47.604Z,6.96
2022-09-15T15:28:37.460Z,7.05
2022-09-15T15:31:09.175Z,7.08
2022-09-15T15:33:38.360Z,7.04
2022-09-15T15:36:15.391Z,7.04
2022-09-15T15:38:52.755Z,6.93
2022-09-15T15:41:32.217Z,6.89
2022-09-15T15:44:03.948Z,6.90
2022-09-15T15:46:53.838Z,6.96
2022-09-15T15:49:28.099Z,6.99
2022-09-15T15:51:58.829Z,7.01
2022-09-15T15:54:27.756Z,6.86
2022-09-15T15:57:04.764Z,6.60
2022-09-15T15:59:34.505Z,6.35
2022-09-15T16:02:07.045Z,6.12
2022-09-15T16:04:35.942Z,6.04
2022-09-15T16:07:04.773Z,6.09
2022-09-15T16:09:34.490Z,6.23
2022-09-15T16:12:03.298Z,6.34
2022-09-15T16:14:32.463Z,6.26
2022-09-15T16:17:01.816Z,6.23
2022-09-15T16:19:30.564Z,6.16
2022-09-15T16:21:59.402Z,6.10
2022-09-15T16:24:29.117Z,6.03
2022-09-15T16:26:57.893Z,5.94
2022-09-15T16:29:31.869Z,5.97
2022-09-15T16:32:00.922Z,6.02
2022-09-15T16:34:29.596Z,6.00
2022-09-15T16:36:58.499Z,6.07
2022-09-15T16:39:27.172Z,6.13
2022-09-15T16:41:55.907Z,6.16
2022-09-15T16:44:24.891Z,6.27
2022-09-15T16:46:53.715Z,6.31
2022-09-15T16:49:22.604Z,6.21
2022-09-15T16:51:51.351Z,5.99
2022-09-15T16:54:23.493Z,5.79
2022-09-15T16:56:52.651Z,5.62
2022-09-15T16:59:21.420Z,5.57
2022-09-15T17:01:50.954Z,5.52
2022-09-15T17:04:19.889Z,5.47
2022-09-15T17:06:48.783Z,5.43
2022-09-15T17:09:17.489Z,5.37
2022-09-15T17:11:46.219Z,5.37
2022-09-15T17:14:17.530Z,5.33
2022-09-15T17:16:53.213Z,5.28
2022-09-15T17:19:22.824Z,5.21
2022-09-15T17:21:53.221Z,5.17
2022-09-15T17:24:21.987Z,5.15
2022-09-15T17:26:51.080Z,5.08
2022-09-15T17:29:19.741Z,5.06
2022-09-15T17:31:48.502Z,5.03
2022-09-15T17:34:17.246Z,5.01
2022-09-15T17:36:46.075Z,4.96
2022-09-15T17:39:15.385Z,4.95
2022-09-15T17:41:45.438Z,4.92
2022-09-15T17:44:14.958Z,4.90
2022-09-15T17:46:43.845Z,4.85
2022-09-15T17:49:12.866Z,4.79
2022-09-15T17:51:41.967Z,4.75
2022-09-15T17:54:13.945Z,4.69
2022-09-15T17:56:42.724Z,4.68
2022-09-15T17:59:15.621Z,4.68
2022-09-15T18:01:45.744Z,4.62
2022-09-15T18:04:15.146Z,4.56
2022-09-15T18:06:45.684Z,4.50
2022-09-15T18:09:15.912Z,4.49
2022-09-15T18:11:44.958Z,4.42
2022-09-15T18:14:13.718Z,4.40
2022-09-15T18:16:43.152Z,4.34
2022-09-15T18:19:12.116Z,4.28
2022-09-15T18:21:40.834Z,4.26
2022-09-15T18:24:12.216Z,4.22
2022-09-15T18:26:40.921Z,4.16
2022-09-15T18:29:10.674Z,4.16
2022-09-15T18:31:39.449Z,4.18
2022-09-15T18:34:08.438Z,4.18
2022-09-15T18:36:37.445Z,4.14
2022-09-15T18:39:06.214Z,4.09
2022-09-15T18:41:37.650Z,4.03
2022-09-15T18:44:06.524Z,3.99
2022-09-15T18:46:35.360Z,3.94
2022-09-15T18:49:04.089Z,3.96
2022-09-15T18:51:50.458Z,4.02
2022-09-15T18:54:19.923Z,3.97
2022-09-15T18:56:48.636Z,3.97
2022-09-15T18:59:17.892Z,3.91
2022-09-15T19:01:47.613Z,3.89
2022-09-15T19:04:16.480Z,3.85
2022-09-15T19:06:45.267Z,3.81
2022-09-15T19:09:14.049Z,3.80
2022-09-15T19:11:43.618Z,3.71
2022-09-15T19:14:12.308Z,3.65
2022-09-15T19:16:57.197Z,3.59
2022-09-15T19:19:27.038Z,3.55
2022-09-15T19:21:55.866Z,3.50
2022-09-15T19:24:25.914Z,3.54
2022-09-15T19:26:54.592Z,3.49
2022-09-15T19:29:23.672Z,3.47
2022-09-15T19:31:52.553Z,3.49
2022-09-15T19:34:21.926Z,3.49
2022-09-15T19:36:50.896Z,3.48
2022-09-15T19:39:19.735Z,3.47
2022-09-15T19:41:48.699Z,3.44
2022-09-15T19:44:17.774Z,3.50
2022-09-15T19:46:46.982Z,3.47
2022-09-15T19:49:15.776Z,3.42
2022-09-15T19:51:45.027Z,3.40
2022-09-15T19:54:13.955Z,3.31
2022-09-15T19:56:42.919Z,3.25
2022-09-15T19:59:11.670Z,3.27
2022-09-15T20:01:41.499Z,3.21
2022-09-15T20:04:11.264Z,3.18
2022-09-15T20:06:40.916Z,3.19
2022-09-15T20:09:10.774Z,3.21
2022-09-15T20:11:39.496Z,3.14
2022-09-15T20:14:08.584Z,3.15
2022-09-15T20:16:38.321Z,3.12
2022-09-15T20:19:08.192Z,3.09
2022-09-15T20:21:50.440Z,3.03
2022-09-15T20:24:21.434Z,3.06
2022-09-15T20:26:50.276Z,3.00
2022-09-15T20:29:19.967Z,2.97
2022-09-15T20:31:49.082Z,2.96
2022-09-15T20:34:19.296Z,2.96
2022-09-15T20:36:48.094Z,2.92
2022-09-15T20:39:19.389Z,2.94
2022-09-15T20:41:48.461Z,2.91
2022-09-15T20:44:17.333Z,2.85
2022-09-15T20:46:46.122Z,2.84
2022-09-15T20:49:14.915Z,2.85
2022-09-15T20:51:43.892Z,2.80
2022-09-15T20:54:12.720Z,2.81
2022-09-15T20:56:42.402Z,2.76
2022-09-15T20:59:14.702Z,2.72
2022-09-15T21:01:44.231Z,2.69
2022-09-15T21:04:13.422Z,2.63
2022-09-15T21:06:42.335Z,2.63
2022-09-15T21:09:11.261Z,2.61
2022-09-15T21:11:40.380Z,2.63
2022-09-15T21:14:11.345Z,2.61
2022-09-15T21:16:40.680Z,2.58
2022-09-15T21:19:12.912Z,2.56
2022-09-15T21:21:41.880Z,2.52
2022-09-15T21:24:11.096Z,2.50
2022-09-15T21:27:01.846Z,2.48
2022-09-15T21:29:31.863Z,2.49
2022-09-15T21:32:00.637Z,2.44
2022-09-15T21:34:29.562Z,2.40
2022-09-15T21:36:58.517Z,2.35
2022-09-15T21:39:28.167Z,2.36
2022-09-15T21:41:56.921Z,2.36
2022-09-15T21:44:27.623Z,2.34
2022-09-15T21:46:56.332Z,2.35
2022-09-15T21:49:26.432Z,2.38
2022-09-15T21:51:55.224Z,2.40
2022-09-15T21:54:24.963Z,2.36
2022-09-15T21:56:53.660Z,2.33
2022-09-15T21:59:22.638Z,2.30
2022-09-15T22:01:52.755Z,2.23
2022-09-15T22:04:21.797Z,2.20
2022-09-15T22:06:51.441Z,2.19
2022-09-15T22:09:21.931Z,2.13
2022-09-15T22:11:51.790Z,2.09
2022-09-15T22:14:22.002Z,2.05
2022-09-15T22:16:50.871Z,2.01
2022-09-15T22:19:20.183Z,1.95
2022-09-15T22:21:49.411Z,1.96
2022-09-15T22:24:19.372Z,1.96
2022-09-15T22:26:48.226Z,1.95
2022-09-15T22:29:16.930Z,1.97
2022-09-15T22:31:45.762Z,1.96
2022-09-15T22:34:15.365Z,1.97
2022-09-15T22:36:46.036Z,1.99
2022-09-15T22:39:15.602Z,1.94
2022-09-15T22:41:44.376Z,1.95
2022-09-15T22:44:19.703Z,1.94
2022-09-15T22:46:50.287Z,1.94
2022-09-15T22:49:19.328Z,1.95
2022-09-15T22:51:48.267Z,1.92
2022-09-15T22:54:17.241Z,1.91
2022-09-15T22:56:48.970Z,1.95
2022-09-15T22:59:17.734Z,2.02
2022-09-15T23:01:47.920Z,2.02
2022-09-15T23:04:17.002Z,2.11
2022-09-15T23:06:46.312Z,2.23
2022-09-15T23:09:15.092Z,2.29
2022-09-15T23:11:43.939Z,2.38
2022-09-15T23:14:15.839Z,2.36
2022-09-15T23:16:44.865Z,2.39
2022-09-15T23:19:14.576Z,2.40
2022-09-15T23:21:44.049Z,2.36
2022-09-15T23:24:13.171Z,2.37
2022-09-15T23:26:42.864Z,2.42
2022-09-15T23:29:11.874Z,2.44
2022-09-15T23:31:40.956Z,2.53
2022-09-15T23:34:14.780Z,2.59
2022-09-15T23:36:44.144Z,2.68
2022-09-15T23:39:13.307Z,2.81
2022-09-15T23:41:42.501Z,2.95
2022-09-15T23:44:11.827Z,3.08
2022-09-15T23:46:40.670Z,3.26
2022-09-15T23:49:10.002Z,3.40
2022-09-15T23:51:38.773Z,3.58
2022-09-15T23:54:07.624Z,3.73
2022-09-15T23:56:36.800Z,3.89
2022-09-15T23:59:05.741Z,4.17
